Time;durP1;ratioP1;P1;durP2;ratioP2;P2;SDS_P1;SDS_P2;PMS_P1;PMS_P2;Temp;Humidity;BMP_temperature;BMP_pressure;BME280_temperature;BME280_humidity;BME280_pressure;Samples;Min_cycle;Max_cycle;Signal;HPM_P1;HPM_P2
2022/11/01 00:00:52;;;;;;;;;;;;;;;;;;5112182;27;20016;-52
2022/11/01 00:03:17;;;;;;;;;;;;;;;;;;5121363;27;20420;-52
2022/11/01 00:05:42;;;;;;;;;;;;;;;;;;5116273;27;19912;-53
2022/11/01 00:08:07;;;;;;;;;;;;;;;;;;5116172;27;19912;-53
2022/11/01 00:10:32;;;;;;;;;;;;;;;;;;5122156;27;19916;-53
2022/11/01 00:12:57;;;;;;;;;;;;;;;;;;5124045;27;19968;-53
2022/11/01 00:15:22;;;;;;;;;;;;;;;;;;5124899;27;19916;-53
2022/11/01 00:17:47;;;;;;;;;;;;;;;;;;5119951;27;19919;-53
2022/11/01 00:20:12;;;;;;;;;;;;;;;;;;5126260;27;19915;-53
2022/11/01 00:22:37;;;;;;;;;;;;;;;;;;5119153;27;19992;-54
2022/11/01 00:25:03;;;;;;;;;;;;;;;;;;5119041;27;19955;-54
2022/11/01 00:27:28;;;;;;;;;;;;;;;;;;5130570;27;19911;-53
2022/11/01 00:29:53;;;;;;;;;;;;;;;;;;5131732;27;19985;-53
2022/11/01 00:32:18;;;;;;;;;;;;;;;;;;5125757;27;19923;-53
2022/11/01 00:34:43;;;;;;;;;;;;;;;;;;5122312;27;19929;-53
2022/11/01 00:37:08;;;;;;;;;;;;;;;;;;5104475;27;19908;-53
2022/11/01 00:39:33;;;;;;;;;;;;;;;;;;5124023;27;19916;-53
2022/11/01 00:41:58;;;;;;;;;;;;;;;;;;5115375;27;19927;-53
2022/11/01 00:44:23;;;;;;;;;;;;;;;;;;5130096;27;20273;-53
2022/11/01 00:46:48;;;;;;;;;;;;;;;;;;5116220;27;19916;-52
2022/11/01 00:49:13;;;;;;;;;;;;;;;;;;5113832;27;19954;-53
2022/11/01 00:51:38;;;;;;;;;;;;;;;;;;5114233;27;20415;-53
2022/11/01 00:54:04;;;;;;;;;;;;;;;;;;5111619;27;19918;-52
2022/11/01 00:56:29;;;;;;;;;;;;;;;;;;5111465;27;19963;-52
2022/11/01 00:58:54;;;;;;;;;;;;;;;;;;5131210;27;19914;-52
2022/11/01 01:01:19;;;;;;;;;;;;;;;;;;5117792;27;19916;-52
2022/11/01 01:03:44;;;;;;;;;;;;;;;;;;5123011;27;19915;-52
2022/11/01 01:06:09;;;;;;;;;;;;;;;;;;5111795;27;19919;-52
2022/11/01 01:08:34;;;;;;;;;;;;;;;;;;5124019;27;20430;-53
2022/11/01 01:10:59;;;;;;;;;;;;;;;;;;5120094;27;19996;-54
2022/11/01 01:13:24;;;;;;;;;;;;;;;;;;5110981;28;19915;-53
2022/11/01 01:15:50;;;;;;;;;;;;;;;;;;5124044;27;19911;-53
2022/11/01 01:18:15;;;;;;;;;;;;;;;;;;5115754;27;19916;-53
2022/11/01 01:20:40;;;;;;;;;;;;;;;;;;5111420;27;19920;-52
2022/11/01 01:23:05;;;;;;;;;;;;;;;;;;5131092;27;20293;-52
2022/11/01 01:25:30;;;;;;;;;;;;;;;;;;5124086;27;19920;-53
2022/11/01 01:27:55;;;;;;;;;;;;;;;;;;5122619;27;19938;-53
2022/11/01 01:30:20;;;;;;;;;;;;;;;;;;5126642;27;19944;-53
2022/11/01 01:32:45;;;;;;;;;;;;;;;;;;5119791;27;20293;-53
2022/11/01 01:35:10;;;;;;;;;;;;;;;;;;5123082;27;19961;-53
2022/11/01 01:37:35;;;;;;;;;;;;;;;;;;5116202;28;19907;-53
2022/11/01 01:40:00;;;;;;;;;;;;;;;;;;5115697;28;19911;-53
2022/11/01 01:42:25;;;;;;;;;;;;;;;;;;5120343;28;19919;-53
2022/11/01 01:44:51;;;;;;;;;;;;;;;;;;5126375;28;19918;-53
2022/11/01 01:47:16;;;;;;;;;;;;;;;;;;5128649;27;20326;-53
2022/11/01 01:49:41;;;;;;;;;;;;;;;;;;5125894;27;19919;-58
2022/11/01 01:52:06;;;;;;;;;;;;;;;;;;5129781;27;20048;-53
2022/11/01 01:54:31;;;;;;;;;;;;;;;;;;5123124;27;19911;-53
2022/11/01 01:56:56;;;;;;;;;;;;;;;;;;5127977;27;19911;-53
2022/11/01 01:59:21;;;;;;;;;;;;;;;;;;5114299;28;20286;-53
2022/11/01 02:01:46;;;;;;;;;;;;;;;;;;5126805;27;19919;-53
2022/11/01 02:04:11;;;;;;;;;;;;;;;;;;5130555;27;19956;-53
2022/11/01 02:06:36;;;;;;;;;;;;;;;;;;5131657;27;19911;-52
2022/11/01 02:09:01;;;;;;;;;;;;;;;;;;5131673;27;19950;-52
2022/11/01 02:11:27;;;;;;;;;;;;;;;;;;5128331;27;19915;-51
2022/11/01 02:13:52;;;;;;;;;;;;;;;;;;5117591;27;19968;-53
2022/11/01 02:16:17;;;;;;;;;;;;;;;;;;5116929;27;19911;-53
2022/11/01 02:18:42;;;;;;;;;;;;;;;;;;5121968;27;19978;-53
2022/11/01 02:21:07;;;;;;;;;;;;;;;;;;5118490;27;20386;-53
2022/11/01 02:23:32;;;;;;;;;;;;;;;;;;5115058;27;19912;-52
2022/11/01 02:25:57;;;;;;;;;;;;;;;;;;5128648;27;19937;-53
2022/11/01 02:28:22;;;;;;;;;;;;;;;;;;5129129;27;19915;-53
2022/11/01 02:30:47;;;;;;;;;;;;;;;;;;5127419;27;19915;-52
2022/11/01 02:33:12;;;;;;;;;;;;;;;;;;5122814;27;20006;-52
2022/11/01 02:35:37;;;;;;;;;;;;;;;;;;5129454;27;19919;-53
2022/11/01 02:38:02;;;;;;;;;;;;;;;;;;5123800;27;19942;-52
2022/11/01 02:40:28;;;;;;;;;;;;;;;;;;5126245;27;19916;-52
2022/11/01 02:42:53;;;;;;;;;;;;;;;;;;5114237;27;19975;-52
2022/11/01 02:45:27;;;;;;;;;;;;;;;;;;5129753;27;19919;-53
2022/11/01 02:47:52;;;;;;;;;;;;;;;;;;5114120;27;19942;-53
2022/11/01 02:50:18;;;;;;;;;;;;;;;;;;5116430;27;19912;-53
2022/11/01 02:52:43;;;;;;;;;;;;;;;;;;5118803;27;19915;-53
2022/11/01 02:55:08;;;;;;;;;;;;;;;;;;5130018;27;19919;-54
2022/11/01 02:57:33;;;;;;;;;;;;;;;;;;5115892;27;19931;-53
2022/11/01 03:00:04;;;;;;;;;;;;;;;;;;5118215;27;20315;-53
2022/11/01 03:02:38;;;;;;;;;;;;;;;;;;5119399;27;20061;-51
2022/11/01 03:05:03;;;;;;;;;;;;;;;;;;5118834;27;19915;-53
2022/11/01 03:07:29;;;;;;;;;;;;;;;;;;5125065;27;19922;-53
2022/11/01 03:09:54;;;;;;;;;;;;;;;;;;5120515;27;19965;-52
2022/11/01 03:12:19;;;;;;;;;;;;;;;;;;5120513;27;19919;-53
2022/11/01 03:14:44;;;;;;;;;;;;;;;;;;5115914;27;19916;-53
2022/11/01 03:17:09;;;;;;;;;;;;;;;;;;5130266;27;19912;-53
2022/11/01 03:19:34;;;;;;;;;;;;;;;;;;5132092;27;19960;-53
2022/11/01 03:22:00;;;;;;;;;;;;;;;;;;5119799;27;19915;-53
2022/11/01 03:24:25;;;;;;;;;;;;;;;;;;5112216;27;19912;-53
2022/11/01 03:26:50;;;;;;;;;;;;;;;;;;5120246;27;20266;-53
2022/11/01 03:29:15;;;;;;;;;;;;;;;;;;5130544;27;20023;-53
2022/11/01 03:31:40;;;;;;;;;;;;;;;;;;5117844;27;19951;-52
2022/11/01 03:34:05;;;;;;;;;;;;;;;;;;5119218;27;19912;-52
2022/11/01 03:36:30;;;;;;;;;;;;;;;;;;5126875;27;19983;-53
2022/11/01 03:38:55;;;;;;;;;;;;;;;;;;5128525;27;19911;-53
2022/11/01 03:41:20;;;;;;;;;;;;;;;;;;5116224;27;19916;-53
2022/11/01 03:43:46;;;;;;;;;;;;;;;;;;5132096;27;19919;-52
2022/11/01 03:46:11;;;;;;;;;;;;;;;;;;5127812;27;19916;-52
2022/11/01 03:48:36;;;;;;;;;;;;;;;;;;5121668;27;19919;-53
2022/11/01 03:51:01;;;;;;;;;;;;;;;;;;5118425;27;20419;-53
2022/11/01 03:53:26;;;;;;;;;;;;;;;;;;5120174;27;19915;-53
2022/11/01 03:55:51;;;;;;;;;;;;;;;;;;5123912;27;19930;-52
2022/11/01 03:58:17;;;;;;;;;;;;;;;;;;5111768;27;19915;-52
2022/11/01 04:00:42;;;;;;;;;;;;;;;;;;5117968;27;19968;-52
2022/11/01 04:03:07;;;;;;;;;;;;;;;;;;5118388;27;19938;-52
2022/11/01 04:05:32;;;;;;;;;;;;;;;;;;5113854;27;20010;-52
2022/11/01 04:07:57;;;;;;;;;;;;;;;;;;5124672;27;19965;-52
2022/11/01 04:10:22;;;;;;;;;;;;;;;;;;5124243;27;19927;-52
2022/11/01 04:12:47;;;;;;;;;;;;;;;;;;5117629;27;19912;-52
2022/11/01 04:20:40;;;;;;;;;;;;;;;;;;5113293;27;20011;-52
2022/11/01 04:23:06;;;;;;;;;;;;;;;;;;5130397;27;19998;-53
2022/11/01 04:25:31;;;;;;;;;;;;;;;;;;5116815;27;19922;-53
2022/11/01 04:27:56;;;;;;;;;;;;;;;;;;5126128;27;19907;-53
2022/11/01 04:30:21;;;;;;;;;;;;;;;;;;5120258;27;19964;-56
2022/11/01 04:32:46;;;;;;;;;;;;;;;;;;5111249;27;20655;-53
2022/11/01 04:35:11;;;;;;;;;;;;;;;;;;5116964;27;20458;-53
2022/11/01 04:37:36;;;;;;;;;;;;;;;;;;5126291;27;20431;-53
2022/11/01 04:40:01;;;;;;;;;;;;;;;;;;5127883;27;20289;-52
2022/11/01 04:42:26;;;;;;;;;;;;;;;;;;5127506;27;19927;-52
2022/11/01 04:44:52;;;;;;;;;;;;;;;;;;5132092;27;19915;-53
2022/11/01 04:47:17;;;;;;;;;;;;;;;;;;5133576;27;19912;-52
2022/11/01 04:49:42;;;;;;;;;;;;;;;;;;5136513;27;20407;-52
2022/11/01 04:52:07;;;;;;;;;;;;;;;;;;5139330;27;19961;-52
2022/11/01 04:54:32;;;;;;;;;;;;;;;;;;5136845;27;20033;-54
2022/11/01 04:56:57;;;;;;;;;;;;;;;;;;5129601;27;19916;-53
2022/11/01 04:59:22;;;;;;;;;;;;;;;;;;5141090;27;19911;-53
2022/11/01 05:01:47;;;;;;;;;;;;;;;;;;5119821;27;19924;-52
2022/11/01 05:04:12;;;;;;;;;;;;;;;;;;5124840;27;20330;-53
2022/11/01 05:06:37;;;;;;;;;;;;;;;;;;5125834;27;19935;-53
2022/11/01 05:09:03;;;;;;;;;;;;;;;;;;5129673;27;19911;-53
2022/11/01 05:11:28;;;;;;;;;;;;;;;;;;5123855;27;19915;-52
2022/11/01 05:13:53;;;;;;;;;;;;;;;;;;5121580;27;19957;-53
2022/11/01 05:16:18;;;;;;;;;;;;;;;;;;5127522;27;19912;-52
2022/11/01 05:18:43;;;;;;;;;;;;;;;;;;5128421;27;20287;-52
2022/11/01 05:21:08;;;;;;;;;;;;;;;;;;5124557;27;19911;-52
2022/11/01 05:23:33;;;;;;;;;;;;;;;;;;5115274;27;19912;-53
2022/11/01 05:25:58;;;;;;;;;;;;;;;;;;5118406;27;19912;-53
2022/11/01 05:28:23;;;;;;;;;;;;;;;;;;5120666;27;20597;-52
2022/11/01 05:30:48;;;;;;;;;;;;;;;;;;5117675;27;19919;-52
2022/11/01 05:33:13;;;;;;;;;;;;;;;;;;5110729;27;19960;-52
2022/11/01 05:35:38;;;;;;;;;;;;;;;;;;5111214;27;19920;-52
2022/11/01 05:38:04;;;;;;;;;;;;;;;;;;5126613;27;19955;-53
2022/11/01 05:40:29;;;;;;;;;;;;;;;;;;5126920;27;19912;-52
2022/11/01 05:42:54;;;;;;;;;;;;;;;;;;5112808;27;19915;-52
2022/11/01 05:45:19;;;;;;;;;;;;;;;;;;5108041;28;20014;-52
2022/11/01 05:47:44;;;;;;;;;;;;;;;;;;5113329;28;19907;-53
2022/11/01 05:50:09;;;;;;;;;;;;;;;;;;5119883;28;19991;-52
2022/11/01 05:52:34;;;;;;;;;;;;;;;;;;5107603;28;19907;-52
2022/11/01 05:54:59;;;;;;;;;;;;;;;;;;5106793;28;19926;-52
2022/11/01 05:57:34;;;;;;;;;;;;;;;;;;5106501;28;19927;-54
2022/11/01 05:59:59;;;;;;;;;;;;;;;;;;5108193;28;19964;-52
2022/11/01 06:02:24;;;;;;;;;;;;;;;;;;5119092;27;19984;-53
2022/11/01 06:04:49;;;;;;;;;;;;;;;;;;5132903;27;19919;-53
2022/11/01 06:07:14;;;;;;;;;;;;;;;;;;5121492;28;19972;-52
2022/11/01 06:09:39;;;;;;;;;;;;;;;;;;5117820;28;19915;-52
2022/11/01 06:12:04;;;;;;;;;;;;;;;;;;5117087;28;19915;-53
2022/11/01 06:14:29;;;;;;;;;;;;;;;;;;5114125;28;20627;-53
2022/11/01 06:16:55;;;;;;;;;;;;;;;;;;5120993;28;19974;-53
2022/11/01 06:19:20;;;;;;;;;;;;;;;;;;5119693;28;19918;-53
2022/11/01 06:21:45;;;;;;;;;;;;;;;;;;5119077;28;19923;-52
2022/11/01 06:24:10;;;;;;;;;;;;;;;;;;5124922;28;19998;-53
2022/11/01 06:26:35;;;;;;;;;;;;;;;;;;5126336;28;20414;-51
2022/11/01 06:29:03;;;;;;;;;;;;;;;;;;5128011;28;19918;-53
2022/11/01 06:31:28;;;;;;;;;;;;;;;;;;5109877;28;20286;-53
2022/11/01 06:33:54;;;;;;;;;;;;;;;;;;5110562;28;20217;-53
2022/11/01 06:36:19;;;;;;;;;;;;;;;;;;5113991;28;20362;-53
2022/11/01 06:38:44;;;;;;;;;;;;;;;;;;5113652;28;19938;-53
2022/11/01 06:41:09;;;;;;;;;;;;;;;;;;5117129;27;19918;-52
2022/11/01 06:43:34;;;;;;;;;;;;;;;;;;5134048;27;19907;-52
2022/11/01 06:45:59;;;;;;;;;;;;;;;;;;5115962;27;19964;-52
2022/11/01 06:48:25;;;;;;;;;;;;;;;;;;5133977;27;20366;-53
2022/11/01 06:50:52;;;;;;;;;;;;;;;;;;5130199;27;19918;-53
2022/11/01 06:53:17;;;;;;;;;;;;;;;;;;5134018;27;19946;-53
2022/11/01 06:55:42;;;;;;;;;;;;;;;;;;5134048;27;19947;-53
2022/11/01 06:58:07;;;;;;;;;;;;;;;;;;5134136;27;20448;-53
2022/11/01 07:00:32;;;;;;;;;;;;;;;;;;5130182;27;19957;-53
2022/11/01 07:02:58;;;;;;;;;;;;;;;;;;5133738;27;20354;-53
2022/11/01 07:05:23;;;;;;;;;;;;;;;;;;5134054;27;19960;-53
2022/11/01 07:07:48;;;;;;;;;;;;;;;;;;5133910;27;19907;-52
2022/11/01 07:10:13;;;;;;;;;;;;;;;;;;5131848;27;20322;-52
2022/11/01 07:12:38;;;;;;;;;;;;;;;;;;5123192;27;19994;-53
2022/11/01 07:15:03;;;;;;;;;;;;;;;;;;5134081;27;19960;-52
2022/11/01 07:17:28;;;;;;;;;;;;;;;;;;5131895;27;19908;-53
2022/11/01 07:19:53;;;;;;;;;;;;;;;;;;5133421;27;19914;-53
2022/11/01 07:22:19;;;;;;;;;;;;;;;;;;5129995;27;20366;-53
2022/11/01 07:24:44;;;;;;;;;;;;;;;;;;5133233;27;19908;-53
2022/11/01 07:27:09;;;;;;;;;;;;;;;;;;5131880;27;19991;-53
2022/11/01 07:29:34;;;;;;;;;;;;;;;;;;5133570;27;20293;-53
2022/11/01 07:31:59;;;;;;;;;;;;;;;;;;5131221;27;19927;-53
2022/11/01 07:34:24;;;;;;;;;;;;;;;;;;5133317;27;19915;-53
2022/11/01 07:36:49;;;;;;;;;;;;;;;;;;5133015;27;19911;-53
2022/11/01 07:39:14;;;;;;;;;;;;;;;;;;5133318;27;19934;-53
2022/11/01 07:41:39;;;;;;;;;;;;;;;;;;5130886;27;20006;-53
2022/11/01 07:44:04;;;;;;;;;;;;;;;;;;5113681;27;20393;-53
2022/11/01 07:46:29;;;;;;;;;;;;;;;;;;5111574;28;20354;-52
2022/11/01 07:48:55;;;;;;;;;;;;;;;;;;5112291;28;20014;-52
2022/11/01 07:51:20;;;;;;;;;;;;;;;;;;5112287;28;19931;-53
2022/11/01 07:53:45;;;;;;;;;;;;;;;;;;5112515;28;19908;-52
2022/11/01 07:56:10;;;;;;;;;;;;;;;;;;5112431;28;19915;-53
2022/11/01 07:58:35;;;;;;;;;;;;;;;;;;5117014;27;19907;-52
2022/11/01 08:01:00;;;;;;;;;;;;;;;;;;5132906;27;19941;-52
2022/11/01 08:03:25;;;;;;;;;;;;;;;;;;5117517;27;19912;-53
2022/11/01 08:05:50;;;;;;;;;;;;;;;;;;5112151;28;19907;-53
2022/11/01 08:08:15;;;;;;;;;;;;;;;;;;5112477;28;19915;-53
2022/11/01 08:10:41;;;;;;;;;;;;;;;;;;5111806;28;19953;-53
2022/11/01 08:13:06;;;;;;;;;;;;;;;;;;5112957;27;19919;-53
2022/11/01 08:15:31;;;;;;;;;;;;;;;;;;5111346;28;19919;-53
2022/11/01 08:17:56;;;;;;;;;;;;;;;;;;5111715;28;19981;-53
2022/11/01 08:20:21;;;;;;;;;;;;;;;;;;5111699;28;19933;-52
2022/11/01 08:22:46;;;;;;;;;;;;;;;;;;5111309;28;19937;-52
2022/11/01 08:25:11;;;;;;;;;;;;;;;;;;5112161;27;20338;-53
2022/11/01 08:27:36;;;;;;;;;;;;;;;;;;5111877;28;19918;-52
2022/11/01 08:30:02;;;;;;;;;;;;;;;;;;5111809;28;20020;-52
2022/11/01 08:32:27;;;;;;;;;;;;;;;;;;5111491;28;20441;-52
2022/11/01 08:34:52;;;;;;;;;;;;;;;;;;5126717;27;19939;-53
2022/11/01 08:37:17;;;;;;;;;;;;;;;;;;5132201;27;19998;-52
2022/11/01 08:39:42;;;;;;;;;;;;;;;;;;5131609;27;20400;-52
2022/11/01 08:42:07;;;;;;;;;;;;;;;;;;5130341;27;19912;-53
2022/11/01 08:44:33;;;;;;;;;;;;;;;;;;5129146;27;20269;-53
2022/11/01 08:47:00;;;;;;;;;;;;;;;;;;5131757;27;20424;-53
2022/11/01 08:49:25;;;;;;;;;;;;;;;;;;5131849;27;19907;-53
2022/11/01 08:51:50;;;;;;;;;;;;;;;;;;5131818;27;19952;-52
2022/11/01 08:54:15;;;;;;;;;;;;;;;;;;5122173;27;19919;-52
2022/11/01 08:56:40;;;;;;;;;;;;;;;;;;5111062;28;19908;-53
2022/11/01 08:59:06;;;;;;;;;;;;;;;;;;5130868;27;19948;-53
2022/11/01 09:01:31;;;;;;;;;;;;;;;;;;5131968;27;19915;-52
2022/11/01 09:03:56;;;;;;;;;;;;;;;;;;5129481;27;19915;-53
2022/11/01 09:06:22;;;;;;;;;;;;;;;;;;5129672;27;20023;-53
2022/11/01 09:08:47;;;;;;;;;;;;;;;;;;5131760;27;19915;-53
2022/11/01 09:11:12;;;;;;;;;;;;;;;;;;5131482;27;20003;-53
2022/11/01 09:13:37;;;;;;;;;;;;;;;;;;5131515;27;19912;-52
2022/11/01 09:16:02;;;;;;;;;;;;;;;;;;5115903;27;20372;-52
2022/11/01 09:18:27;;;;;;;;;;;;;;;;;;5110672;28;19916;-52
2022/11/01 09:20:52;;;;;;;;;;;;;;;;;;5110992;28;19946;-52
2022/11/01 09:23:18;;;;;;;;;;;;;;;;;;5110703;28;19969;-52
2022/11/01 09:25:43;;;;;;;;;;;;;;;;;;5110586;28;20381;-52
2022/11/01 09:28:08;;;;;;;;;;;;;;;;;;5110743;28;20091;-52
2022/11/01 09:30:33;;;;;;;;;;;;;;;;;;5110864;28;19953;-53
2022/11/01 09:32:58;;;;;;;;;;;;;;;;;;5110278;28;19923;-53
2022/11/01 09:35:23;;;;;;;;;;;;;;;;;;5110968;28;19908;-52
2022/11/01 09:37:48;;;;;;;;;;;;;;;;;;5130600;27;19908;-52
2022/11/01 09:40:13;;;;;;;;;;;;;;;;;;5131124;27;20440;-52
2022/11/01 09:42:39;;;;;;;;;;;;;;;;;;5130975;27;19918;-53
2022/11/01 09:45:04;;;;;;;;;;;;;;;;;;5131251;27;19912;-54
2022/11/01 09:47:29;;;;;;;;;;;;;;;;;;5117407;27;20081;-53
2022/11/01 09:49:54;;;;;;;;;;;;;;;;;;5110065;28;20006;-54
2022/11/01 09:52:19;;;;;;;;;;;;;;;;;;5110661;28;19912;-53
2022/11/01 09:54:44;;;;;;;;;;;;;;;;;;5110543;28;19929;-52
2022/11/01 09:57:09;;;;;;;;;;;;;;;;;;5122174;28;19922;-53
2022/11/01 09:59:34;;;;;;;;;;;;;;;;;;5131138;28;19908;-54
2022/11/01 10:02:01;;;;;;;;;;;;;;;;;;5130963;28;20002;-53
2022/11/01 10:04:26;;;;;;;;;;;;;;;;;;5130854;28;19969;-53
2022/11/01 10:06:51;;;;;;;;;;;;;;;;;;5130981;28;19911;-54
2022/11/01 10:09:16;;;;;;;;;;;;;;;;;;5129891;27;20389;-53
2022/11/01 10:11:41;;;;;;;;;;;;;;;;;;5134690;27;19939;-53
2022/11/01 10:14:06;;;;;;;;;;;;;;;;;;5135232;27;19915;-52
2022/11/01 10:16:32;;;;;;;;;;;;;;;;;;5122724;27;20007;-52
2022/11/01 10:18:57;;;;;;;;;;;;;;;;;;5114119;27;19947;-53
2022/11/01 10:21:22;;;;;;;;;;;;;;;;;;5113998;28;19914;-53
2022/11/01 10:23:47;;;;;;;;;;;;;;;;;;5114340;28;19912;-54
2022/11/01 10:26:12;;;;;;;;;;;;;;;;;;5114233;28;20358;-53
2022/11/01 10:28:37;;;;;;;;;;;;;;;;;;5115231;27;20487;-53
2022/11/01 10:31:02;;;;;;;;;;;;;;;;;;5113726;28;19915;-52
2022/11/01 10:33:27;;;;;;;;;;;;;;;;;;5113931;28;19904;-54
2022/11/01 10:35:52;;;;;;;;;;;;;;;;;;5113898;28;19912;-53
2022/11/01 10:38:17;;;;;;;;;;;;;;;;;;5114246;28;19990;-53
2022/11/01 10:40:42;;;;;;;;;;;;;;;;;;5113468;27;19916;-53
2022/11/01 10:43:08;;;;;;;;;;;;;;;;;;5113655;28;20363;-53
2022/11/01 10:45:33;;;;;;;;;;;;;;;;;;5113880;28;19915;-53
2022/11/01 10:47:58;;;;;;;;;;;;;;;;;;5113771;28;19912;-52
2022/11/01 10:50:23;;;;;;;;;;;;;;;;;;5113414;27;20286;-51
2022/11/01 10:52:48;;;;;;;;;;;;;;;;;;5130785;27;20006;-52
2022/11/01 10:55:13;;;;;;;;;;;;;;;;;;5133953;27;19946;-52
2022/11/01 10:57:38;;;;;;;;;;;;;;;;;;5134057;27;19911;-53
2022/11/01 11:00:05;;;;;;;;;;;;;;;;;;5130412;27;19911;-52
2022/11/01 11:02:30;;;;;;;;;;;;;;;;;;5113444;28;19938;-53
2022/11/01 11:04:55;;;;;;;;;;;;;;;;;;5113207;28;20010;-52
2022/11/01 11:07:20;;;;;;;;;;;;;;;;;;5115008;27;19908;-53
2022/11/01 11:09:48;;;;;;;;;;;;;;;;;;5131863;27;20373;-54
2022/11/01 11:12:13;;;;;;;;;;;;;;;;;;5133920;27;20331;-52
2022/11/01 11:14:39;;;;;;;;;;;;;;;;;;5133940;27;20333;-53
2022/11/01 11:17:04;;;;;;;;;;;;;;;;;;5131710;27;19933;-52
2022/11/01 11:19:29;;;;;;;;;;;;;;;;;;5130245;27;19915;-53
2022/11/01 11:21:54;;;;;;;;;;;;;;;;;;5114113;27;19912;-53
2022/11/01 11:24:19;;;;;;;;;;;;;;;;;;5133574;27;20296;-52
2022/11/01 11:26:44;;;;;;;;;;;;;;;;;;5133730;27;19907;-54
2022/11/01 11:29:09;;;;;;;;;;;;;;;;;;5129297;27;20392;-53
2022/11/01 11:31:34;;;;;;;;;;;;;;;;;;5133222;27;20525;-54
2022/11/01 11:34:00;;;;;;;;;;;;;;;;;;5133057;27;19964;-54
2022/11/01 11:36:25;;;;;;;;;;;;;;;;;;5133818;27;20270;-53
2022/11/01 11:38:50;;;;;;;;;;;;;;;;;;5133428;27;20221;-53
2022/11/01 11:41:15;;;;;;;;;;;;;;;;;;5131450;27;19919;-53
2022/11/01 11:43:41;;;;;;;;;;;;;;;;;;5133272;27;19981;-53
2022/11/01 11:46:07;;;;;;;;;;;;;;;;;;5133380;27;19908;-53
2022/11/01 11:48:32;;;;;;;;;;;;;;;;;;5133137;27;19912;-53
2022/11/01 11:50:57;;;;;;;;;;;;;;;;;;5133257;27;19972;-53
2022/11/01 11:53:23;;;;;;;;;;;;;;;;;;5129879;27;20324;-53
2022/11/01 11:55:48;;;;;;;;;;;;;;;;;;5112492;28;19915;-53
2022/11/01 11:58:13;;;;;;;;;;;;;;;;;;5112511;28;20370;-52
2022/11/01 12:00:38;;;;;;;;;;;;;;;;;;5112322;28;19954;-53
2022/11/01 12:03:04;;;;;;;;;;;;;;;;;;5112017;28;19956;-52
2022/11/01 12:05:29;;;;;;;;;;;;;;;;;;5112280;28;19919;-52
2022/11/01 12:07:54;;;;;;;;;;;;;;;;;;5113203;27;19919;-51
2022/11/01 12:10:19;;;;;;;;;;;;;;;;;;5111904;28;20006;-52
2022/11/01 12:12:44;;;;;;;;;;;;;;;;;;5112208;28;20002;-52
2022/11/01 12:15:09;;;;;;;;;;;;;;;;;;5112116;28;19908;-52
2022/11/01 12:17:35;;;;;;;;;;;;;;;;;;5111098;27;20370;-52
2022/11/01 12:20:00;;;;;;;;;;;;;;;;;;5112723;27;19965;-52
2022/11/01 12:22:25;;;;;;;;;;;;;;;;;;5112093;28;19947;-52
2022/11/01 12:24:50;;;;;;;;;;;;;;;;;;5112144;28;19983;-52
2022/11/01 12:27:15;;;;;;;;;;;;;;;;;;5112165;28;19908;-52
2022/11/01 12:29:40;;;;;;;;;;;;;;;;;;5112384;27;19947;-53
2022/11/01 12:32:06;;;;;;;;;;;;;;;;;;5111257;28;20520;-52
2022/11/01 12:34:31;;;;;;;;;;;;;;;;;;5111864;28;20319;-53
2022/11/01 12:36:57;;;;;;;;;;;;;;;;;;5111810;28;19912;-52
2022/11/01 12:39:22;;;;;;;;;;;;;;;;;;5111614;28;19911;-52
2022/11/01 12:41:47;;;;;;;;;;;;;;;;;;5126401;27;19919;-53
2022/11/01 12:44:12;;;;;;;;;;;;;;;;;;5131921;27;19939;-53
2022/11/01 12:46:37;;;;;;;;;;;;;;;;;;5132036;27;20377;-53
2022/11/01 12:49:03;;;;;;;;;;;;;;;;;;5131773;27;20263;-53
2022/11/01 12:51:28;;;;;;;;;;;;;;;;;;5132198;27;19911;-53
2022/11/01 12:53:53;;;;;;;;;;;;;;;;;;5119122;27;20351;-53
2022/11/01 12:56:18;;;;;;;;;;;;;;;;;;5111151;28;19911;-53
2022/11/01 12:58:43;;;;;;;;;;;;;;;;;;5111640;28;19919;-53
2022/11/01 13:01:08;;;;;;;;;;;;;;;;;;5111059;28;19915;-53
2022/11/01 13:03:33;;;;;;;;;;;;;;;;;;5112215;27;19922;-54
2022/11/01 13:05:58;;;;;;;;;;;;;;;;;;5131627;27;19908;-53
2022/11/01 13:08:24;;;;;;;;;;;;;;;;;;5131916;27;19915;-53
2022/11/01 13:10:49;;;;;;;;;;;;;;;;;;5131937;27;19925;-53
2022/11/01 13:13:14;;;;;;;;;;;;;;;;;;5122071;27;19911;-53
2022/11/01 13:15:39;;;;;;;;;;;;;;;;;;5111364;28;20254;-53
2022/11/01 13:18:04;;;;;;;;;;;;;;;;;;5111187;28;20028;-54
2022/11/01 13:20:29;;;;;;;;;;;;;;;;;;5110933;28;19911;-53
2022/11/01 13:22:54;;;;;;;;;;;;;;;;;;5112505;27;19951;-53
2022/11/01 13:25:19;;;;;;;;;;;;;;;;;;5129293;27;19912;-52
2022/11/01 13:27:44;;;;;;;;;;;;;;;;;;5131501;27;19960;-53
2022/11/01 13:30:10;;;;;;;;;;;;;;;;;;5131679;27;19946;-52
2022/11/01 13:32:35;;;;;;;;;;;;;;;;;;5129906;27;20349;-53
2022/11/01 13:35:00;;;;;;;;;;;;;;;;;;5131424;27;19933;-53
2022/11/01 13:37:25;;;;;;;;;;;;;;;;;;5131181;27;19963;-53
2022/11/01 13:39:50;;;;;;;;;;;;;;;;;;5131437;27;19911;-52
2022/11/01 13:42:16;;;;;;;;;;;;;;;;;;5129997;27;19912;-52
2022/11/01 13:44:41;;;;;;;;;;;;;;;;;;5112279;28;20316;-53
2022/11/01 13:47:07;;;;;;;;;;;;;;;;;;5110709;28;19915;-52
2022/11/01 13:49:32;;;;;;;;;;;;;;;;;;5110663;28;19908;-52
2022/11/01 13:52:00;;;;;;;;;;;;;;;;;;5123154;28;20040;-52
2022/11/01 13:54:26;;;;;;;;;;;;;;;;;;5131075;28;20365;-51
2022/11/01 13:56:51;;;;;;;;;;;;;;;;;;5112016;28;19912;-52
2022/11/01 13:59:16;;;;;;;;;;;;;;;;;;5110338;28;20286;-53
2022/11/01 14:01:41;;;;;;;;;;;;;;;;;;5110013;28;19912;-53
2022/11/01 14:04:06;;;;;;;;;;;;;;;;;;5110196;28;19989;-53
2022/11/01 14:06:32;;;;;;;;;;;;;;;;;;5112505;28;19912;-53
2022/11/01 14:08:57;;;;;;;;;;;;;;;;;;5110483;28;20103;-53
2022/11/01 14:11:22;;;;;;;;;;;;;;;;;;5109984;28;19908;-53
2022/11/01 14:13:47;;;;;;;;;;;;;;;;;;5110412;28;20440;-53
2022/11/01 14:16:12;;;;;;;;;;;;;;;;;;5109393;28;19985;-53
2022/11/01 14:18:37;;;;;;;;;;;;;;;;;;5110141;28;19912;-53
2022/11/01 14:21:02;;;;;;;;;;;;;;;;;;5110254;28;19920;-53
2022/11/01 14:23:27;;;;;;;;;;;;;;;;;;5110197;28;20370;-53
2022/11/01 14:25:52;;;;;;;;;;;;;;;;;;5110338;28;20390;-52
2022/11/01 14:28:18;;;;;;;;;;;;;;;;;;5126298;28;19926;-52
2022/11/01 14:30:44;;;;;;;;;;;;;;;;;;5130736;28;19961;-52
2022/11/01 14:33:09;;;;;;;;;;;;;;;;;;5130238;28;19923;-53
2022/11/01 14:35:34;;;;;;;;;;;;;;;;;;5130590;28;19919;-52
2022/11/01 14:38:02;;;;;;;;;;;;;;;;;;5118528;28;19915;-52
2022/11/01 14:40:28;;;;;;;;;;;;;;;;;;5109858;28;19953;-53
2022/11/01 14:42:53;;;;;;;;;;;;;;;;;;5128081;28;19953;-52
2022/11/01 14:45:18;;;;;;;;;;;;;;;;;;5130333;28;20006;-52
2022/11/01 14:47:43;;;;;;;;;;;;;;;;;;5125688;28;19915;-52
2022/11/01 14:50:08;;;;;;;;;;;;;;;;;;5119145;28;20069;-52
2022/11/01 14:52:34;;;;;;;;;;;;;;;;;;5130494;28;20043;-53
2022/11/01 14:55:00;;;;;;;;;;;;;;;;;;5130309;27;20028;-54
2022/11/01 14:57:25;;;;;;;;;;;;;;;;;;5133568;27;19984;-54
2022/11/01 14:59:50;;;;;;;;;;;;;;;;;;5115856;27;20007;-53
2022/11/01 15:02:16;;;;;;;;;;;;;;;;;;5113079;28;20286;-53
2022/11/01 15:04:44;;;;;;;;;;;;;;;;;;5113488;28;19961;-53
2022/11/01 15:07:10;;;;;;;;;;;;;;;;;;5113586;28;19950;-53
2022/11/01 15:09:35;;;;;;;;;;;;;;;;;;5114054;27;19951;-53
2022/11/01 15:12:00;;;;;;;;;;;;;;;;;;5110738;28;19912;-52
2022/11/01 15:14:25;;;;;;;;;;;;;;;;;;5113192;28;20358;-52
2022/11/01 15:16:50;;;;;;;;;;;;;;;;;;5111183;28;19960;-53
2022/11/01 15:19:16;;;;;;;;;;;;;;;;;;5111177;27;19919;-52
2022/11/01 15:21:41;;;;;;;;;;;;;;;;;;5113178;28;19965;-53
2022/11/01 15:24:06;;;;;;;;;;;;;;;;;;5113044;28;19961;-52
2022/11/01 15:26:31;;;;;;;;;;;;;;;;;;5113077;28;19904;-52
2022/11/01 15:28:56;;;;;;;;;;;;;;;;;;5113245;28;20014;-53
2022/11/01 15:31:21;;;;;;;;;;;;;;;;;;5126464;27;20015;-53
2022/11/01 15:33:46;;;;;;;;;;;;;;;;;;5133483;27;19972;-53
2022/11/01 15:36:11;;;;;;;;;;;;;;;;;;5133589;27;19907;-53
2022/11/01 15:38:36;;;;;;;;;;;;;;;;;;5133389;27;19912;-53
2022/11/01 15:41:01;;;;;;;;;;;;;;;;;;5122791;27;19919;-53
2022/11/01 15:43:27;;;;;;;;;;;;;;;;;;5112465;28;20274;-53
2022/11/01 15:45:52;;;;;;;;;;;;;;;;;;5119039;27;19911;-52
2022/11/01 15:48:17;;;;;;;;;;;;;;;;;;5128147;27;20443;-52
2022/11/01 15:50:42;;;;;;;;;;;;;;;;;;5117383;27;19912;-52
2022/11/01 15:53:07;;;;;;;;;;;;;;;;;;5129847;27;20305;-54
2022/11/01 15:55:32;;;;;;;;;;;;;;;;;;5113201;27;19922;-53
2022/11/01 15:57:57;;;;;;;;;;;;;;;;;;5111581;27;19923;-53
2022/11/01 16:00:22;;;;;;;;;;;;;;;;;;5109026;28;19916;-53
2022/11/01 16:02:47;;;;;;;;;;;;;;;;;;5115752;27;20015;-53
2022/11/01 16:05:12;;;;;;;;;;;;;;;;;;5129896;27;19911;-53
2022/11/01 16:07:37;;;;;;;;;;;;;;;;;;5119585;27;19957;-54
2022/11/01 16:10:03;;;;;;;;;;;;;;;;;;5109087;28;20368;-53
2022/11/01 16:12:30;;;;;;;;;;;;;;;;;;5108942;28;19916;-53
2022/11/01 16:14:56;;;;;;;;;;;;;;;;;;5108413;28;19915;-53
2022/11/01 16:17:23;;;;;;;;;;;;;;;;;;5107714;27;20081;-53
2022/11/01 16:19:50;;;;;;;;;;;;;;;;;;5108949;28;19994;-53
2022/11/01 16:22:15;;;;;;;;;;;;;;;;;;5108333;28;19993;-52
2022/11/01 16:24:40;;;;;;;;;;;;;;;;;;5106958;28;19924;-52
2022/11/01 16:27:07;;;;;;;;;;;;;;;;;;5108145;28;19961;-52
2022/11/01 16:29:32;;;;;;;;;;;;;;;;;;5109322;27;20637;-53
2022/11/01 16:31:57;;;;;;;;;;;;;;;;;;5108633;27;20397;-52
2022/11/01 16:34:23;;;;;;;;;;;;;;;;;;5107936;28;20429;-53
2022/11/01 16:36:48;;;;;;;;;;;;;;;;;;5108521;28;19943;-52